Time;durP1;ratioP1;P1;durP2;ratioP2;P2;SDS_P1;SDS_P2;PMS_P1;PMS_P2;Temp;Humidity;BMP_temperature;BMP_pressure;BME280_temperature;BME280_humidity;BME280_pressure;Samples;Min_cycle;Max_cycle;Signal;HPM_P1;HPM_P2
2023/05/01 00:01:40;;;;;;;4.00;1.70;;;;;;;5.48;64.56;96976.14;106593;1279;24469;-86
2023/05/01 00:04:10;;;;;;;4.90;2.50;;;;;;;5.45;65.18;96978.99;106591;1279;137046;-86
2023/05/01 00:06:36;;;;;;;3.50;1.90;;;;;;;5.41;64.31;96978.32;106761;1280;22611;-85
2023/05/01 00:09:06;;;;;;;4.40;2.30;;;;;;;5.36;64.58;96975.79;106648;1277;137854;-86
2023/05/01 00:11:34;;;;;;;3.70;2.20;;;;;;;5.32;65.18;96974.80;106696;1276;22545;-86
2023/05/01 00:14:03;;;;;;;4.30;3.10;;;;;;;5.27;65.54;96973.48;108632;1279;22654;-85
2023/05/01 00:16:30;;;;;;;2.30;1.90;;;;;;;5.24;65.53;96974.98;106534;1280;137895;-85
2023/05/01 00:18:59;;;;;;;4.60;2.10;;;;;;;5.22;66.03;96972.98;106677;1278;22622;-85
2023/05/01 00:21:27;;;;;;;2.60;2.20;;;;;;;5.19;65.15;96971.34;106719;1277;137331;-86
2023/05/01 00:23:58;;;;;;;3.40;2.50;;;;;;;5.15;65.77;96969.90;106680;1276;25409;-85
2023/05/01 00:26:29;;;;;;;3.50;2.20;;;;;;;5.12;65.39;96968.09;106751;1277;22547;-86
2023/05/01 00:29:02;;;;;;;4.30;2.80;;;;;;;5.11;66.06;96967.67;106704;1276;137367;-86
2023/05/01 00:31:35;;;;;;;4.10;2.80;;;;;;;5.10;66.81;96967.57;106604;1277;22678;-86
2023/05/01 00:34:01;;;;;;;5.90;2.50;;;;;;;5.09;66.74;96967.65;106610;1277;137522;-86
2023/05/01 00:36:30;;;;;;;5.00;2.40;;;;;;;5.09;66.85;96967.00;106726;1278;22810;-86
2023/05/01 00:38:56;;;;;;;4.90;2.00;;;;;;;5.08;66.81;96964.36;106641;1276;25245;-85
2023/05/01 00:41:22;;;;;;;4.30;2.20;;;;;;;5.05;67.27;96965.59;106552;1284;137430;-86
2023/05/01 00:43:50;;;;;;;4.10;2.30;;;;;;;5.04;66.83;96966.39;106632;1277;22560;-86
2023/05/01 00:46:17;;;;;;;3.70;2.00;;;;;;;5.03;67.10;96967.02;106544;1278;137672;-85
2023/05/01 00:48:44;;;;;;;3.30;2.20;;;;;;;5.01;67.71;96965.45;106621;1280;22530;-85
2023/05/01 00:51:11;;;;;;;3.70;2.30;;;;;;;4.98;67.99;96961.98;106483;1277;137156;-86
2023/05/01 00:53:41;;;;;;;3.10;2.40;;;;;;;4.92;67.46;96962.47;106740;1280;22530;-86
2023/05/01 00:56:07;;;;;;;4.20;2.00;;;;;;;4.88;67.53;96958.57;106586;1280;25371;-86
2023/05/01 00:58:33;;;;;;;5.10;2.30;;;;;;;4.88;67.86;96958.40;106589;1275;137429;-85
2023/05/01 01:01:00;;;;;;;3.50;2.20;;;;;;;4.89;67.82;96956.08;106668;1277;22563;-86
2023/05/01 01:03:26;;;;;;;3.80;2.10;;;;;;;4.93;67.82;96957.39;106582;1276;139009;-86
2023/05/01 01:05:59;;;;;;;3.40;2.10;;;;;;;4.98;67.93;96957.86;106727;1277;23409;-86
2023/05/01 01:08:29;;;;;;;5.50;2.10;;;;;;;5.00;67.92;96956.31;106886;1280;25275;-85
2023/05/01 01:11:05;;;;;;;4.60;2.60;;;;;;;4.97;67.58;96955.47;106660;1280;136994;-86
2023/05/01 01:13:52;;;;;;;6.10;2.80;;;;;;;4.98;67.97;96954.42;106720;1276;22557;-86
2023/05/01 01:16:25;;;;;;;4.70;2.80;;;;;;;4.95;68.19;96950.05;106725;1277;136985;-85
2023/05/01 01:19:06;;;;;;;4.70;2.40;;;;;;;4.92;68.12;96951.52;106702;1278;22601;-86
2023/05/01 01:21:35;;;;;;;3.30;2.50;;;;;;;4.88;68.49;96952.02;106612;1280;137652;-86
2023/05/01 01:24:26;;;;;;;5.10;3.00;;;;;;;4.88;67.92;96952.37;106810;1283;22621;-86
2023/05/01 01:27:20;;;;;;;7.70;2.30;;;;;;;4.95;68.60;96948.35;107119;1276;22543;-86
2023/05/01 01:30:06;;;;;;;4.70;3.20;;;;;;;4.92;68.67;96950.98;107114;1278;24764;-87
2023/05/01 01:33:03;;;;;;;2.90;2.60;;;;;;;4.89;68.57;96955.17;106795;1280;22532;-86
2023/05/01 01:35:30;;;;;;;3.20;2.50;;;;;;;4.84;68.22;96947.04;107060;1276;137539;-86
2023/05/01 01:38:21;;;;;;;5.40;2.40;;;;;;;4.85;68.73;96947.98;106912;1277;22547;-85
2023/05/01 01:41:01;;;;;;;4.30;2.40;;;;;;;4.82;68.71;96943.38;106818;1277;137184;-87
2023/05/01 01:43:38;;;;;;;6.30;2.80;;;;;;;4.83;69.92;96938.20;109265;1276;25454;-86
2023/05/01 01:46:05;;;;;;;7.20;3.10;;;;;;;4.84;70.29;96933.63;106732;1276;137110;-86
2023/05/01 01:48:41;;;;;;;5.60;2.50;;;;;;;4.86;70.03;96928.67;106851;1272;22549;-86
2023/05/01 01:51:12;;;;;;;3.80;2.50;;;;;;;4.90;69.99;96933.84;106565;1277;138346;-86
2023/05/01 01:53:43;;;;;;;6.80;2.80;;;;;;;4.94;69.55;96923.20;106813;1278;23062;-86
2023/05/01 01:56:13;;;;;;;;;;;;;;;4.99;70.25;96920.26;106881;1276;24391;-86
2023/05/01 01:58:39;;;;;;;3.90;2.50;;;;;;;5.03;69.48;96921.98;106786;1276;123645;-87
2023/05/01 02:01:05;;;;;;;5.00;2.70;;;;;;;5.06;68.69;96919.23;106667;1280;23354;-86
2023/05/01 02:03:31;;;;;;;4.50;2.70;;;;;;;5.10;68.56;96915.56;106622;1282;137233;-87
2023/05/01 02:05:58;;;;;;;4.30;2.80;;;;;;;5.09;68.12;96913.72;106941;1276;22535;-85
2023/05/01 02:08:24;;;;;;;6.80;3.20;;;;;;;5.08;67.69;96906.78;106968;1277;23299;-86
2023/05/01 02:10:58;;;;;;;6.90;3.60;;;;;;;5.14;67.75;96904.45;106826;1277;137261;-86
2023/05/01 02:13:26;;;;;;;8.50;3.70;;;;;;;5.15;67.76;96902.98;106777;1275;22535;-86
2023/05/01 02:15:52;;;;;;;5.20;3.00;;;;;;;5.12;66.20;96903.14;106578;1280;137039;-86
2023/05/01 02:18:18;;;;;;;5.90;3.00;;;;;;;5.14;66.99;96898.23;106680;1277;22796;-86
2023/05/01 02:20:51;;;;;;;6.70;3.20;;;;;;;5.11;68.06;96900.00;106879;1276;22578;-86
2023/05/01 02:23:17;;;;;;;7.20;3.40;;;;;;;5.07;67.44;96896.97;107155;1276;136931;-86
2023/05/01 02:25:43;;;;;;;5.20;3.90;;;;;;;5.01;67.45;96891.28;106707;1280;23950;-86
2023/05/01 02:28:12;;;;;;;6.70;4.10;;;;;;;5.00;67.79;96889.45;106474;1280;137849;-86
2023/05/01 02:30:41;;;;;;;6.50;3.20;;;;;;;4.99;67.74;96886.33;106697;1280;25587;-86
2023/05/01 02:33:07;;;;;;;5.00;3.00;;;;;;;4.97;68.47;96888.02;106682;1276;137189;-86
2023/05/01 02:35:43;;;;;;;3.50;2.20;;;;;;;4.96;68.19;96883.13;106917;1270;22613;-87
2023/05/01 02:38:14;;;;;;;4.00;2.70;;;;;;;4.92;67.61;96878.03;106679;1283;24283;-86
2023/05/01 02:40:45;;;;;;;5.00;3.10;;;;;;;4.90;68.21;96870.02;106670;1280;137096;-86
2023/05/01 02:43:14;;;;;;;6.10;3.10;;;;;;;4.87;67.43;96869.15;106820;1277;22553;-86
2023/05/01 02:45:40;;;;;;;6.30;2.70;;;;;;;4.82;67.24;96867.48;106677;1276;138298;-86
2023/05/01 02:48:10;;;;;;;4.70;3.00;;;;;;;4.77;68.27;96869.34;106800;1277;25071;-86
2023/05/01 02:50:39;;;;;;;5.30;3.40;;;;;;;4.74;68.24;96868.80;106882;1277;23285;-86
2023/05/01 02:53:05;;;;;;;5.50;3.40;;;;;;;4.71;66.85;96867.85;106889;1276;137210;-86
2023/05/01 02:55:34;;;;;;;7.60;2.50;;;;;;;4.70;67.87;96866.20;106847;1276;22585;-87
2023/05/01 02:58:01;;;;;;;5.70;3.00;;;;;;;4.71;68.97;96868.72;106908;1276;138152;-86
2023/05/01 03:00:30;;;;;;;4.70;3.00;;;;;;;4.70;68.37;96867.55;106861;1280;24251;-86
2023/05/01 03:02:57;;;;;;;4.50;2.20;;;;;;;4.74;67.47;96872.20;106958;1277;23135;-86
2023/05/01 03:05:25;;;;;;;4.40;3.00;;;;;;;4.77;68.12;96875.88;106798;1281;136973;-86
2023/05/01 03:07:51;;;;;;;6.60;4.40;;;;;;;4.81;66.89;96877.20;107025;1277;22560;-86
2023/05/01 03:10:26;;;;;;;5.90;3.10;;;;;;;4.85;67.70;96879.66;106571;1279;137275;-86
2023/05/01 03:12:57;;;;;;;7.00;2.60;;;;;;;4.90;69.16;96881.15;106665;1280;22536;-86
2023/05/01 03:15:23;;;;;;;3.70;2.10;;;;;;;4.88;68.87;96884.26;106569;1280;137385;-86
2023/05/01 03:17:50;;;;;;;4.10;2.40;;;;;;;4.79;69.72;96887.67;106732;1277;25380;-87
2023/05/01 03:20:16;;;;;;;4.20;2.70;;;;;;;4.73;70.06;96883.94;106505;1277;24212;-86
2023/05/01 03:22:42;;;;;;;5.60;2.30;;;;;;;4.67;70.09;96884.30;106548;1276;137240;-86
2023/05/01 03:25:14;;;;;;;6.00;2.80;;;;;;;4.61;70.82;96883.64;106563;1283;23046;-86
2023/05/01 03:27:40;;;;;;;2.20;2.00;;;;;;;4.55;71.00;96877.28;106639;1276;137301;-87
2023/05/01 03:30:08;;;;;;;5.40;3.00;;;;;;;4.52;71.72;96874.11;106804;1276;22531;-86
2023/05/01 03:32:35;;;;;;;5.70;2.40;;;;;;;4.52;71.82;96873.08;106480;1280;141658;-86
2023/05/01 03:35:02;;;;;;;4.70;2.20;;;;;;;4.48;71.20;96869.95;106697;1284;138243;-86
2023/05/01 03:37:31;;;;;;;4.20;2.50;;;;;;;4.47;71.07;96871.60;106561;1277;22536;-86
2023/05/01 03:40:00;;;;;;;4.40;2.90;;;;;;;4.46;70.13;96873.64;106617;1280;137358;-86
2023/05/01 03:42:28;;;;;;;4.10;2.60;;;;;;;4.44;69.61;96873.74;107004;1280;26414;-86
2023/05/01 03:44:54;;;;;;;4.40;2.60;;;;;;;4.44;70.42;96869.33;106975;1279;22537;-86
2023/05/01 03:47:24;;;;;;;5.70;2.70;;;;;;;4.41;70.42;96868.86;107019;1277;137829;-86
2023/05/01 03:49:53;;;;;;;5.90;2.50;;;;;;;4.40;70.72;96867.83;107191;1276;25487;-87
2023/05/01 03:52:25;;;;;;;5.20;2.80;;;;;;;4.36;71.19;96867.55;106735;1278;138366;-86
2023/05/01 03:54:51;;;;;;;6.00;3.30;;;;;;;4.37;72.12;96868.34;106901;1283;22621;-86
2023/05/01 03:57:19;;;;;;;2.90;2.10;;;;;;;4.38;72.02;96865.07;106846;1278;137122;-86
2023/05/01 03:59:53;;;;;;;4.90;2.70;;;;;;;4.36;71.33;96868.81;106652;1283;25420;-86
2023/05/01 04:02:22;;;;;;;3.80;2.80;;;;;;;4.34;71.35;96864.20;106835;1276;22643;-86
2023/05/01 04:04:48;;;;;;;6.20;2.90;;;;;;;4.31;71.36;96867.04;106714;1280;137769;-86
2023/05/01 04:07:14;;;;;;;4.00;2.70;;;;;;;4.31;70.71;96865.98;106822;1276;22682;-86
2023/05/01 04:09:43;;;;;;;4.70;3.30;;;;;;;4.31;70.86;96864.49;106834;1276;137244;-86
2023/05/01 04:12:10;;;;;;;5.40;4.10;;;;;;;4.29;70.56;96862.23;106957;1280;24286;-87
2023/05/01 04:14:36;;;;;;;4.10;2.80;;;;;;;4.27;70.78;96861.40;106914;1276;24246;-86
2023/05/01 04:17:02;;;;;;;5.20;2.80;;;;;;;4.26;70.56;96858.42;106727;1280;137367;-87
2023/05/01 04:19:28;;;;;;;3.20;2.50;;;;;;;4.27;70.79;96856.09;107184;1276;25422;-86
2023/05/01 04:21:55;;;;;;;3.90;2.30;;;;;;;4.26;70.97;96852.38;106916;1276;138184;-86
2023/05/01 04:24:22;;;;;;;4.70;2.60;;;;;;;4.27;71.30;96851.95;106974;1280;22560;-86
2023/05/01 04:26:49;;;;;;;4.90;3.30;;;;;;;4.29;71.34;96848.35;106834;1276;22557;-86
2023/05/01 04:29:15;;;;;;;4.50;3.20;;;;;;;4.30;71.94;96852.52;106676;1276;137628;-86
2023/05/01 04:31:42;;;;;;;4.90;3.20;;;;;;;4.31;73.02;96849.31;106817;1278;22669;-86
2023/05/01 04:34:08;;;;;;;6.20;2.70;;;;;;;4.33;72.67;96851.60;106602;1276;136983;-86
2023/05/01 04:36:34;;;;;;;4.10;3.20;;;;;;;4.32;72.65;96850.79;106833;1276;24293;-86
2023/05/01 04:39:00;;;;;;;4.80;3.00;;;;;;;4.29;72.75;96852.45;106937;1276;22620;-86
2023/05/01 04:41:27;;;;;;;6.90;3.10;;;;;;;4.27;72.79;96853.66;106980;1278;137395;-86
2023/05/01 04:43:53;;;;;;;4.60;2.60;;;;;;;4.26;72.87;96854.39;106858;1277;25267;-86
2023/05/01 04:46:19;;;;;;;4.30;3.00;;;;;;;4.29;73.33;96853.14;106836;1269;138303;-86
2023/05/01 04:48:45;;;;;;;5.50;2.90;;;;;;;4.28;73.11;96855.99;106870;1276;24229;-87
2023/05/01 04:51:11;;;;;;;5.70;2.80;;;;;;;4.31;72.95;96858.77;106626;1276;137992;-86
2023/05/01 04:53:38;;;;;;;4.10;2.40;;;;;;;4.32;72.70;96860.79;106851;1260;22543;-86
2023/05/01 04:56:04;;;;;;;4.90;3.00;;;;;;;4.34;73.39;96858.05;106799;1280;25492;-86
2023/05/01 04:58:31;;;;;;;5.10;2.60;;;;;;;4.34;73.91;96858.48;106668;1264;137140;-86
2023/05/01 05:00:57;;;;;;;4.30;2.50;;;;;;;4.39;73.97;96859.29;106925;1276;22933;-86
2023/05/01 05:03:23;;;;;;;4.50;2.60;;;;;;;4.40;73.32;96856.27;106603;1276;137672;-86
2023/05/01 05:05:49;;;;;;;4.80;2.40;;;;;;;4.42;73.29;96856.79;106796;1283;22566;-87
2023/05/01 05:08:15;;;;;;;4.80;2.80;;;;;;;4.44;73.68;96857.52;106813;1268;22555;-86
2023/05/01 05:10:41;;;;;;;5.90;3.30;;;;;;;4.45;75.26;96862.73;106633;1277;137223;-86
2023/05/01 05:13:08;;;;;;;5.70;3.70;;;;;;;4.51;74.86;96856.38;106648;1280;23939;-86
2023/05/01 05:15:35;;;;;;;4.50;2.90;;;;;;;4.61;74.83;96857.42;106568;1276;137712;-86
2023/05/01 05:18:01;;;;;;;6.20;3.90;;;;;;;4.70;74.69;96858.67;106717;1280;23942;-86
2023/05/01 05:20:28;;;;;;;4.10;3.10;;;;;;;4.84;74.56;96854.35;106764;1279;22534;-86
2023/05/01 05:22:54;;;;;;;4.50;2.50;;;;;;;4.98;76.39;96858.05;106717;1276;137214;-86
2023/05/01 05:25:20;;;;;;;4.30;2.60;;;;;;;5.08;76.38;96857.16;106828;1278;25364;-86
2023/05/01 05:27:46;;;;;;;6.20;3.50;;;;;;;5.19;76.03;96860.35;106699;1273;137331;-86
2023/05/01 05:30:15;;;;;;;5.60;3.10;;;;;;;5.30;75.42;96857.25;107010;1283;22574;-87
2023/05/01 05:32:44;;;;;;;3.70;2.70;;;;;;;5.42;75.60;96862.02;106728;1283;23016;-85
2023/05/01 05:35:10;;;;;;;6.90;3.80;;;;;;;5.47;76.33;96861.76;106627;1283;136983;-87
2023/05/01 05:37:36;;;;;;;5.80;3.00;;;;;;;5.57;75.50;96854.30;106920;1278;22630;-87
2023/05/01 05:40:05;;;;;;;5.00;3.00;;;;;;;5.75;68.90;96853.59;106629;1283;137445;-87
2023/05/01 05:42:34;;;;;;;4.30;3.80;;;;;;;6.04;68.58;96853.14;106861;1276;24308;-86
2023/05/01 05:45:00;;;;;;;4.20;2.90;;;;;;;6.24;71.01;96851.76;106924;1276;22540;-87
2023/05/01 05:47:25;;;;;;;4.60;3.00;;;;;;;6.36;69.58;96852.21;106832;1276;136758;-87
2023/05/01 05:49:55;;;;;;;3.80;2.60;;;;;;;6.51;68.07;96846.35;106793;1278;22563;-86
2023/05/01 05:52:22;;;;;;;5.20;2.90;;;;;;;6.63;67.83;96850.28;106645;1278;137523;-87
2023/05/01 05:54:48;;;;;;;4.30;2.90;;;;;;;6.77;65.76;96849.68;106768;1278;22563;-86
2023/05/01 05:57:14;;;;;;;8.00;4.80;;;;;;;6.92;66.45;96851.35;106827;1278;137706;-87
2023/05/01 05:59:40;;;;;;;8.10;5.10;;;;;;;7.02;67.48;96854.35;106935;1276;22660;-86
2023/05/01 06:02:06;;;;;;;11.20;6.00;;;;;;;7.11;67.83;96853.84;106794;1282;22575;-87
2023/05/01 06:04:33;;;;;;;7.20;5.10;;;;;;;7.18;67.85;96849.30;106638;1276;137386;-87
2023/05/01 06:07:05;;;;;;;6.90;3.70;;;;;;;7.25;67.03;96849.02;106882;1276;22536;-86
2023/05/01 06:09:42;;;;;;;5.20;2.90;;;;;;;7.33;67.04;96848.21;106754;1276;137309;-87
2023/05/01 06:12:13;;;;;;;8.00;4.60;;;;;;;7.41;68.69;96847.10;106760;1280;22594;-87
2023/05/01 06:14:39;;;;;;;4.70;3.40;;;;;;;7.48;68.38;96846.35;106858;1276;22544;-86
2023/05/01 06:17:06;;;;;;;7.30;4.30;;;;;;;7.57;67.97;96851.75;106721;1276;138145;-86
2023/05/01 06:19:32;;;;;;;4.20;2.90;;;;;;;7.65;67.32;96852.80;106811;1277;22541;-86
2023/05/01 06:21:58;;;;;;;6.10;3.80;;;;;;;7.75;69.50;96848.30;106578;1280;136957;-86
2023/05/01 06:24:24;;;;;;;7.90;3.40;;;;;;;7.85;68.95;96850.15;106882;1280;22536;-86
2023/05/01 06:27:10;;;;;;;5.20;3.50;;;;;;;7.92;66.64;96851.15;106993;1268;22542;-86
2023/05/01 06:29:45;;;;;;;8.10;4.00;;;;;;;8.02;65.68;96851.66;106806;1277;24276;-86
2023/05/01 06:32:49;;;;;;;;;;;;;;;;;;;;;
2023/05/01 06:35:20;;;;;;;5.50;3.90;;;;;;;8.22;65.21;96849.84;106725;1276;137240;-87
2023/05/01 06:37:59;;;;;;;8.50;3.60;;;;;;;8.30;67.26;96847.77;106803;1280;22559;-86
2023/05/01 06:40:46;;;;;;;;;;;;;;;;;;;;;
2023/05/01 06:43:42;;;;;;;5.20;3.40;;;;;;;8.48;65.38;96846.36;106774;1281;22640;-86
2023/05/01 06:46:11;;;;;;;6.30;3.60;;;;;;;8.61;65.31;96850.50;106884;1278;137210;-87
2023/05/01 06:48:38;;;;;;;5.90;3.90;;;;;;;8.71;63.91;96852.80;106760;1279;22553;-87
2023/05/01 06:51:03;;;;;;;6.70;3.90;;;;;;;8.81;63.58;96848.77;106822;1276;22598;-87
2023/05/01 06:53:29;;;;;;;6.00;3.20;;;;;;;8.90;61.81;96841.98;106809;1283;136867;-86
2023/05/01 06:56:16;;;;;;;5.80;3.00;;;;;;;8.99;63.65;96843.62;106917;1277;22524;-86
2023/05/01 06:58:44;;;;;;;3.90;2.50;;;;;;;9.09;62.50;96840.83;106696;1278;137000;-87
2023/05/01 07:01:10;;;;;;;6.00;2.70;;;;;;;9.20;61.77;96841.79;106746;1278;25276;-86
2023/05/01 07:04:38;;;;;;;5.10;2.80;;;;;;;9.26;58.61;96842.98;106581;1284;137974;-87
2023/05/01 07:07:26;;;;;;;6.00;3.80;;;;;;;9.33;57.12;96838.00;106881;1276;22655;-86
2023/05/01 07:10:48;;;;;;;4.30;2.90;;;;;;;9.43;57.36;96837.30;106648;1279;137700;-86
2023/05/01 07:14:15;;;;;;;5.00;3.70;;;;;;;9.54;55.87;96836.55;106821;1276;22549;-86
2023/05/01 07:17:41;;;;;;;5.80;2.80;;;;;;;9.65;54.82;96841.48;106610;1276;136993;-87
2023/05/01 07:21:33;;;;;;;3.80;2.40;;;;;;;9.75;55.08;96834.34;109741;1283;22196;-85
2023/05/01 07:24:17;;;;;;;4.90;2.30;;;;;;;9.85;53.08;96834.27;109641;1276;136984;-85
2023/05/01 07:27:42;;;;;;;7.00;2.50;;;;;;;9.95;51.96;96833.89;109704;1276;22663;-85
2023/05/01 07:30:29;;;;;;;3.50;1.90;;;;;;;10.06;52.49;96831.25;107578;1276;22537;-85
2023/05/01 07:33:56;;;;;;;4.70;2.70;;;;;;;10.17;53.04;96831.45;106711;1278;22608;-85
2023/05/01 07:37:25;;;;;;;3.40;1.90;;;;;;;10.34;51.61;96827.58;109697;1277;22341;-86
2023/05/01 07:40:49;;;;;;;5.30;2.30;;;;;;;10.49;50.78;96831.27;109553;1278;138045;-86
2023/05/01 07:44:07;;;;;;;;;;;;;;;;;;;;;
2023/05/01 07:47:34;;;;;;;5.60;2.40;;;;;;;10.75;48.63;96826.08;109710;1276;138088;-86
2023/05/01 07:51:01;;;;;;;3.10;1.90;;;;;;;10.83;49.39;96824.27;107247;1262;22763;-86
2023/05/01 07:54:24;;;;;;;;;;;;;;;;;;;;;
2023/05/01 07:58:13;;;;;;;4.20;2.30;;;;;;;11.01;49.99;96823.36;109814;1277;22503;-86
2023/05/01 08:01:20;;;;;;;4.70;2.80;;;;;;;11.08;49.45;96820.91;109605;1276;22203;-86
2023/05/01 08:04:41;;;;;;;5.50;2.90;;;;;;;11.22;51.06;96819.79;109513;1283;139151;-86
2023/05/01 08:08:07;;;;;;;6.50;3.20;;;;;;;11.37;51.10;96817.85;109687;1283;22416;-86
2023/05/01 08:11:33;;;;;;;4.50;2.20;;;;;;;11.57;51.49;96819.14;106916;1276;137348;-86
2023/05/01 08:14:45;;;;;;;6.60;3.10;;;;;;;11.71;50.70;96817.34;109640;1284;22355;-86
2023/05/01 08:17:13;;;;;;;6.40;2.30;;;;;;;11.84;50.97;96815.83;106680;1276;138092;-85
2023/05/01 08:20:41;;;;;;;4.30;3.10;;;;;;;11.90;50.40;96816.57;108197;1277;22595;-85
2023/05/01 08:23:07;;;;;;;3.50;2.40;;;;;;;12.02;51.66;96814.45;106417;1278;137342;-85
2023/05/01 08:26:22;;;;;;;;;;;;;;;;;;;;;
2023/05/01 08:29:50;;;;;;;5.80;2.40;;;;;;;12.17;50.02;96814.98;109718;1273;137450;-87
2023/05/01 08:33:17;;;;;;;15.70;8.20;;;;;;;12.22;49.99;96811.16;106665;1277;24410;-86
2023/05/01 08:36:43;;;;;;;5.30;2.40;;;;;;;12.32;49.00;96805.52;109715;1276;137956;-89
2023/05/01 08:40:10;;;;;;;11.10;8.40;;;;;;;12.39;50.13;96802.41;106637;1276;23253;-86
2023/05/01 08:43:39;;;;;;;6.20;3.70;;;;;;;12.50;50.24;96800.56;106555;1277;22966;-87
2023/05/01 08:47:04;;;;;;;4.30;2.60;;;;;;;12.58;49.60;96801.19;109682;1284;137849;-87
2023/05/01 08:54:00;;;;;;;7.10;2.50;;;;;;;12.76;49.05;96802.34;109476;1277;137858;-87
2023/05/01 08:57:27;;;;;;;7.20;2.70;;;;;;;12.84;48.78;96800.13;109600;1278;22183;-87
2023/05/01 09:00:56;;;;;;;4.10;2.30;;;;;;;12.92;48.82;96802.95;109747;1276;137788;-87
2023/05/01 09:04:13;;;;;;;6.90;2.20;;;;;;;13.03;47.35;96800.97;107060;1277;22559;-86
2023/05/01 09:07:40;;;;;;;4.80;2.30;;;;;;;13.11;47.62;96796.02;109737;1277;22205;-87
2023/05/01 09:11:07;;;;;;;4.00;2.40;;;;;;;13.22;47.08;96789.77;106499;1277;139279;-87
2023/05/01 09:14:34;;;;;;;4.50;2.40;;;;;;;13.30;47.41;96788.90;109704;1283;22167;-87
2023/05/01 09:18:00;;;;;;;4.80;2.30;;;;;;;13.40;48.68;96784.61;109565;1278;137375;-88
2023/05/01 09:21:28;;;;;;;4.30;2.30;;;;;;;13.53;47.23;96780.05;108315;1277;24228;-87
2023/05/01 09:24:54;;;;;;;4.80;2.50;;;;;;;13.60;46.64;96778.81;106567;1277;138404;-86
2023/05/01 09:28:24;;;;;;;3.80;2.40;;;;;;;13.68;48.08;96777.27;106573;1280;25250;-87
2023/05/01 09:32:08;;;;;;;3.30;2.20;;;;;;;13.79;47.47;96776.74;106654;1276;22553;-87
2023/05/01 09:35:35;;;;;;;4.60;2.10;;;;;;;13.87;46.49;96768.93;109278;1283;137529;-87
2023/05/01 09:39:01;;;;;;;4.40;2.60;;;;;;;13.89;46.39;96766.16;106993;1283;22678;-86
2023/05/01 09:42:24;;;;;;;4.30;2.50;;;;;;;13.96;48.03;96763.51;109259;1283;138174;-87
2023/05/01 09:45:34;;;;;;;4.70;2.70;;;;;;;14.06;46.47;96768.23;109231;1285;22658;-87
2023/05/01 09:48:59;;;;;;;;;;;;;;;;;;;;;
2023/05/01 09:52:31;;;;;;;3.60;2.50;;;;;;;14.14;47.95;96762.02;106830;1278;24236;-86
2023/05/01 09:55:56;;;;;;;4.90;2.70;;;;;;;14.20;45.33;96765.00;109667;1280;23186;-86
2023/05/01 09:59:33;;;;;;;3.80;2.20;;;;;;;14.26;46.86;96760.75;106577;1260;138334;-87
2023/05/01 10:03:05;;;;;;;;;;;;;;;;;;;;;
2023/05/01 10:06:34;;;;;;;4.50;2.30;;;;;;;14.44;45.26;96754.43;109681;1276;138901;-87
2023/05/01 10:10:09;;;;;;;5.20;2.50;;;;;;;14.50;44.64;96750.13;109835;1278;22360;-87
2023/05/01 10:13:35;;;;;;;4.00;2.50;;;;;;;14.65;46.30;96749.72;106861;1277;22579;-86
2023/05/01 10:17:02;;;;;;;5.10;1.90;;;;;;;14.76;44.37;96741.64;106565;1278;138680;-87
2023/05/01 10:19:34;;;;;;;4.10;2.50;;;;;;;14.84;44.89;96741.88;107184;1284;25046;-87
2023/05/01 10:23:02;;;;;;;3.50;2.40;;;;;;;14.86;43.66;96736.36;106619;1280;138065;-86
2023/05/01 10:26:27;;;;;;;6.00;2.00;;;;;;;14.93;44.71;96735.87;109673;1279;22976;-87
2023/05/01 10:29:53;;;;;;;4.00;2.40;;;;;;;15.00;44.74;96734.97;106705;1261;137377;-87
2023/05/01 10:33:20;;;;;;;3.50;2.20;;;;;;;15.08;45.38;96728.44;106638;1278;26533;-87
2023/05/01 10:36:30;;;;;;;;;;;;;;;;;;;;;
2023/05/01 10:40:10;;;;;;;4.70;2.10;;;;;;;15.26;44.50;96721.17;109758;1280;23328;-87
2023/05/01 10:43:54;;;;;;;3.70;2.30;;;;;;;15.32;43.79;96715.52;106309;1283;25441;-86
2023/05/01 10:47:10;;;;;;;4.50;2.50;;;;;;;15.34;42.87;96712.81;105745;1296;137932;-89
2023/05/01 10:50:45;;;;;;;3.60;2.00;;;;;;;15.42;44.45;96714.40;108810;1290;22227;-88
2023/05/01 10:54:11;;;;;;;5.20;2.60;;;;;;;15.44;42.38;96710.64;109712;1276;137446;-88
2023/05/01 10:57:27;;;;;;;5.00;2.20;;;;;;;15.48;44.16;96708.11;109629;1276;22311;-88
2023/05/01 11:00:59;;;;;;;5.00;2.60;;;;;;;15.62;42.82;96712.55;109530;1277;138427;-87
2023/05/01 11:04:26;;;;;;;3.30;2.10;;;;;;;15.72;42.90;96704.81;109728;1278;23014;-87
2023/05/01 11:08:02;;;;;;;3.20;1.90;;;;;;;15.75;41.99;96703.03;107382;1278;22561;-85
2023/05/01 11:11:27;;;;;;;5.20;2.90;;;;;;;15.81;43.27;96695.85;106531;1281;137510;-86
2023/05/01 11:15:07;;;;;;;3.70;2.40;;;;;;;15.97;43.19;96695.84;106576;1277;23132;-86
2023/05/01 11:18:40;;;;;;;;;;;;;;;;;;;;;
2023/05/01 11:22:11;;;;;;;5.20;2.60;;;;;;;16.21;44.03;96683.79;106762;1278;22554;-85
2023/05/01 11:25:38;;;;;;;3.60;2.20;;;;;;;16.28;44.07;96682.79;106616;1277;22576;-86
2023/05/01 11:28:57;;;;;;;3.50;2.30;;;;;;;16.27;42.28;96684.95;106645;1284;24387;-86
2023/05/01 11:32:25;;;;;;;3.60;2.00;;;;;;;16.29;42.47;96678.76;106744;1277;22650;-87
2023/05/01 11:35:54;;;;;;;4.60;2.50;;;;;;;16.36;42.21;96677.53;106879;1280;137730;-86
2023/05/01 11:39:21;;;;;;;5.80;2.50;;;;;;;16.38;42.10;96673.77;106556;1280;22536;-86
2023/05/01 11:42:48;;;;;;;3.40;2.20;;;;;;;16.44;42.81;96672.24;106635;1278;137423;-86
2023/05/01 11:46:15;;;;;;;4.40;2.40;;;;;;;16.53;41.09;96666.81;106733;1280;22645;-87
2023/05/01 11:49:41;;;;;;;5.80;3.10;;;;;;;16.49;41.04;96659.30;108705;1278;22536;-86
2023/05/01 11:53:11;;;;;;;4.30;2.80;;;;;;;16.49;40.73;96657.48;106597;1284;22533;-87
2023/05/01 11:56:39;;;;;;;4.50;2.50;;;;;;;16.52;40.51;96650.27;106559;1284;22534;-87
2023/05/01 12:00:13;;;;;;;3.80;2.40;;;;;;;16.60;40.63;96654.59;106575;1264;138541;-87
2023/05/01 12:03:40;;;;;;;3.90;2.40;;;;;;;16.61;40.38;96649.14;106393;1279;22558;-87
2023/05/01 12:07:17;;;;;;;4.30;3.00;;;;;;;16.65;40.66;96642.52;106687;1284;137420;-86
2023/05/01 12:10:36;;;;;;;5.00;2.30;;;;;;;16.74;40.25;96638.95;106612;1278;26587;-86
2023/05/01 12:14:03;;;;;;;5.10;2.20;;;;;;;16.78;41.37;96631.42;106575;1283;25352;-87
2023/05/01 12:17:29;;;;;;;4.30;2.50;;;;;;;16.84;40.34;96630.08;106570;1283;137843;-86
2023/05/01 12:20:56;;;;;;;4.70;2.20;;;;;;;16.87;40.53;96627.11;106617;1284;22702;-86
2023/05/01 12:24:32;;;;;;;4.50;2.30;;;;;;;16.96;41.83;96627.77;106440;1283;136808;-86
2023/05/01 12:28:01;;;;;;;4.80;2.20;;;;;;;17.08;40.30;96621.52;106483;1277;22784;-86
2023/05/01 12:31:28;;;;;;;3.80;2.30;;;;;;;17.15;39.74;96618.30;108741;1284;138323;-86
2023/05/01 12:35:01;;;;;;;3.70;2.10;;;;;;;17.17;39.60;96615.33;107706;1284;26575;-86
2023/05/01 12:38:30;;;;;;;4.30;2.20;;;;;;;17.16;39.49;96610.62;106512;1277;22530;-86
2023/05/01 12:41:59;;;;;;;2.90;2.00;;;;;;;17.16;39.40;96606.86;106465;1284;138135;-86
2023/05/01 12:45:25;;;;;;;4.50;1.90;;;;;;;17.23;41.19;96605.01;106647;1281;22545;-86
2023/05/01 12:49:13;;;;;;;3.20;1.90;;;;;;;17.34;40.93;96604.13;106408;1279;137785;-86
2023/05/01 12:52:21;;;;;;;3.10;2.00;;;;;;;17.37;39.20;96595.11;106594;1279;22579;-86
2023/05/01 12:55:48;;;;;;;4.40;2.10;;;;;;;17.29;38.77;96597.16;106510;1277;137368;-86
2023/05/01 12:59:15;;;;;;;4.40;2.10;;;;;;;17.27;38.95;96586.83;109766;1278;22141;-86
2023/05/01 13:02:42;;;;;;;3.00;2.30;;;;;;;17.33;39.75;96575.89;109629;1279;22472;-86
2023/05/01 13:06:08;;;;;;;3.50;2.30;;;;;;;17.41;40.20;96576.33;109595;1276;137849;-87
2023/05/01 13:09:34;;;;;;;3.40;2.10;;;;;;;17.52;40.28;96576.73;106570;1278;22642;-86
2023/05/01 13:13:01;;;;;;;2.90;1.90;;;;;;;17.57;38.86;96574.20;106489;1278;137331;-86
2023/05/01 13:16:51;;;;;;;4.60;2.40;;;;;;;17.63;39.64;96571.42;106655;1277;22585;-86
2023/05/01 13:19:50;;;;;;;4.10;2.00;;;;;;;17.68;39.30;96565.98;106457;1278;137202;-86
2023/05/01 13:23:10;;;;;;;;;;;;;;;;;;;;;
2023/05/01 13:26:31;;;;;;;7.10;2.40;;;;;;;17.64;37.42;96561.38;106639;1280;22551;-86
2023/05/01 13:29:45;;;;;;;;;;;;;;;;;;;;;
2023/05/01 13:33:12;;;;;;;3.70;2.30;;;;;;;17.62;38.58;96554.33;106837;1283;22536;-86
2023/05/01 13:36:39;;;;;;;4.40;2.30;;;;;;;17.58;38.69;96544.45;106586;1283;137874;-86
2023/05/01 13:40:05;;;;;;;4.80;2.20;;;;;;;17.58;38.10;96541.98;106620;1280;23195;-86
2023/05/01 13:43:32;;;;;;;4.40;2.30;;;;;;;17.58;38.87;96540.04;108364;1284;137656;-86